KBEH/BEH METAR and TAF weather

Enter ICAO airport designator
Station Type Date Time Source
KBEH METAR 2020/07/09 08:53 UTC NOAA

KBEH 090853Z AUTO 00000KT 6SM BR CLR 22/20 A2991 RMK AO2 SLP122 T02170200 53003


Station Type Date Time Source
KBEH Decoded METAR 2020/07/09 08:53 UTC NOAA

SOUTHWEST MICHIGAN REGIONAL, MI, United States (KBEH) 42-08N 86-25W 191M
Jul 09, 2020 - 04:53 AM EDT / 2020.07.09 0853 UTC
Wind: Calm:0
Visibility: 6 mile(s):0
Sky conditions: clear
Weather: mist
Temperature: 71.1 F (21.7 C)
Dew Point: 68.0 F (20.0 C)
Relative Humidity: 90%
Pressure (altimeter): 29.91 in. Hg (1012 hPa)
Pressure tendency: 0.01 inches (0.3 hPa) higher than three hours ago
ob: KBEH 090853Z AUTO 00000KT 6SM BR CLR 22/20 A2991 RMK AO2 SLP122 T02170200 53003
cycle: 9

Station Type Date Time Source
KBEH TAF UTC NOAA

Error!

Example: see airport list